sensor_id;sensor_type;location;lat;lon;timestamp;temperature;humidity
13992;DHT22;7070;53.586;9.692;2023-03-03T00:02:04;2.00;87.20
13992;DHT22;7070;53.586;9.692;2023-03-03T00:04:31;2.70;87.70
13992;DHT22;7070;53.586;9.692;2023-03-03T00:06:58;2.10;87.10
13992;DHT22;7070;53.586;9.692;2023-03-03T00:09:25;2.20;87.40
13992;DHT22;7070;53.586;9.692;2023-03-03T00:11:55;2.60;87.50
13992;DHT22;7070;53.586;9.692;2023-03-03T00:14:27;2.40;87.20
13992;DHT22;7070;53.586;9.692;2023-03-03T00:16:54;2.40;87.20
13992;DHT22;7070;53.586;9.692;2023-03-03T00:19:22;2.70;87.50
13992;DHT22;7070;53.586;9.692;2023-03-03T00:21:50;2.50;87.20
13992;DHT22;7070;53.586;9.692;2023-03-03T00:24:20;2.50;87.10
13992;DHT22;7070;53.586;9.692;2023-03-03T00:26:48;2.60;87.10
13992;DHT22;7070;53.586;9.692;2023-03-03T00:29:32;2.60;87.10
13992;DHT22;7070;53.586;9.692;2023-03-03T00:32:17;2.60;87.10
13992;DHT22;7070;53.586;9.692;2023-03-03T00:34:47;2.70;87.20
13992;DHT22;7070;53.586;9.692;2023-03-03T00:37:25;2.70;87.20
13992;DHT22;7070;53.586;9.692;2023-03-03T00:39:53;2.80;87.20
13992;DHT22;7070;53.586;9.692;2023-03-03T00:42:26;2.70;87.10
13992;DHT22;7070;53.586;9.692;2023-03-03T00:44:57;2.80;87.20
13992;DHT22;7070;53.586;9.692;2023-03-03T00:47:27;2.80;87.20
13992;DHT22;7070;53.586;9.692;2023-03-03T00:49:55;2.90;87.30
13992;DHT22;7070;53.586;9.692;2023-03-03T00:52:26;2.80;87.20
13992;DHT22;7070;53.586;9.692;2023-03-03T00:54:53;2.80;87.20
13992;DHT22;7070;53.586;9.692;2023-03-03T00:57:20;2.90;87.20
13992;DHT22;7070;53.586;9.692;2023-03-03T00:59:47;2.90;87.30
13992;DHT22;7070;53.586;9.692;2023-03-03T01:02:15;2.90;87.20
13992;DHT22;7070;53.586;9.692;2023-03-03T01:04:43;2.90;87.10
13992;DHT22;7070;53.586;9.692;2023-03-03T01:07:14;3.00;87.20
13992;DHT22;7070;53.586;9.692;2023-03-03T01:09:41;2.90;87.30
13992;DHT22;7070;53.586;9.692;2023-03-03T01:12:09;3.00;87.20
13992;DHT22;7070;53.586;9.692;2023-03-03T01:14:36;3.00;87.10
13992;DHT22;7070;53.586;9.692;2023-03-03T01:17:03;3.00;87.10
13992;DHT22;7070;53.586;9.692;2023-03-03T01:19:32;3.00;87.20
13992;DHT22;7070;53.586;9.692;2023-03-03T01:21:59;3.60;87.80
13992;DHT22;7070;53.586;9.692;2023-03-03T01:24:26;3.00;87.10
13992;DHT22;7070;53.586;9.692;2023-03-03T01:26:53;3.00;87.10
13992;DHT22;7070;53.586;9.692;2023-03-03T01:29:20;3.00;87.80
13992;DHT22;7070;53.586;9.692;2023-03-03T01:31:47;3.00;87.00
13992;DHT22;7070;53.586;9.692;2023-03-03T01:34:13;3.00;87.00
13992;DHT22;7070;53.586;9.692;2023-03-03T01:36:42;3.00;86.90
13992;DHT22;7070;53.586;9.692;2023-03-03T01:39:10;2.90;86.90
13992;DHT22;7070;53.586;9.692;2023-03-03T01:41:37;2.90;86.90
13992;DHT22;7070;53.586;9.692;2023-03-03T01:44:04;3.10;87.20
13992;DHT22;7070;53.586;9.692;2023-03-03T01:46:40;2.90;87.00
13992;DHT22;7070;53.586;9.692;2023-03-03T01:49:13;2.90;87.10
13992;DHT22;7070;53.586;9.692;2023-03-03T01:51:47;2.80;87.10
13992;DHT22;7070;53.586;9.692;2023-03-03T01:54:19;3.00;87.30
13992;DHT22;7070;53.586;9.692;2023-03-03T01:56:49;2.90;87.20
13992;DHT22;7070;53.586;9.692;2023-03-03T01:59:18;2.90;87.20
13992;DHT22;7070;53.586;9.692;2023-03-03T02:01:47;2.80;87.10
13992;DHT22;7070;53.586;9.692;2023-03-03T02:04:15;2.80;87.10
13992;DHT22;7070;53.586;9.692;2023-03-03T02:06:46;2.80;87.20
13992;DHT22;7070;53.586;9.692;2023-03-03T02:09:20;2.80;87.20
13992;DHT22;7070;53.586;9.692;2023-03-03T02:11:50;2.90;87.30
13992;DHT22;7070;53.586;9.692;2023-03-03T02:14:18;2.90;87.30
13992;DHT22;7070;53.586;9.692;2023-03-03T02:16:45;2.90;87.30
13992;DHT22;7070;53.586;9.692;2023-03-03T02:19:19;2.80;87.20
13992;DHT22;7070;53.586;9.692;2023-03-03T02:21:48;2.80;87.20
13992;DHT22;7070;53.586;9.692;2023-03-03T02:24:20;2.80;87.20
13992;DHT22;7070;53.586;9.692;2023-03-03T02:26:52;2.90;87.30
13992;DHT22;7070;53.586;9.692;2023-03-03T02:29:19;2.90;87.30
13992;DHT22;7070;53.586;9.692;2023-03-03T02:31:46;2.80;87.80
13992;DHT22;7070;53.586;9.692;2023-03-03T02:34:13;2.80;87.00
13992;DHT22;7070;53.586;9.692;2023-03-03T02:36:40;2.80;87.00
13992;DHT22;7070;53.586;9.692;2023-03-03T02:39:10;2.80;87.70
13992;DHT22;7070;53.586;9.692;2023-03-03T02:41:44;2.70;87.00
13992;DHT22;7070;53.586;9.692;2023-03-03T02:44:15;2.70;87.10
13992;DHT22;7070;53.586;9.692;2023-03-03T02:46:43;2.70;87.20
13992;DHT22;7070;53.586;9.692;2023-03-03T02:49:12;2.70;87.20
13992;DHT22;7070;53.586;9.692;2023-03-03T02:51:39;2.90;87.40
13992;DHT22;7070;53.586;9.692;2023-03-03T02:54:07;2.60;87.90
13992;DHT22;7070;53.586;9.692;2023-03-03T02:56:35;2.70;87.30
13992;DHT22;7070;53.586;9.692;2023-03-03T02:59:03;2.70;87.30
13992;DHT22;7070;53.586;9.692;2023-03-03T03:01:31;2.70;87.30
13992;DHT22;7070;53.586;9.692;2023-03-03T03:04:02;2.60;87.20
13992;DHT22;7070;53.586;9.692;2023-03-03T03:06:30;2.60;87.30
13992;DHT22;7070;53.586;9.692;2023-03-03T03:08:57;2.60;87.30
13992;DHT22;7070;53.586;9.692;2023-03-03T03:11:25;2.70;87.50
13992;DHT22;7070;53.586;9.692;2023-03-03T03:13:52;2.60;87.40
13992;DHT22;7070;53.586;9.692;2023-03-03T03:16:18;2.70;87.50
13992;DHT22;7070;53.586;9.692;2023-03-03T03:18:47;2.60;87.50
13992;DHT22;7070;53.586;9.692;2023-03-03T03:21:15;2.80;87.70
13992;DHT22;7070;53.586;9.692;2023-03-03T03:23:43;2.60;87.30
13992;DHT22;7070;53.586;9.692;2023-03-03T03:26:10;2.60;87.90
13992;DHT22;7070;53.586;9.692;2023-03-03T03:28:37;2.60;87.10
13992;DHT22;7070;53.586;9.692;2023-03-03T03:31:05;2.60;87.30
13992;DHT22;7070;53.586;9.692;2023-03-03T03:33:32;2.60;87.40
13992;DHT22;7070;53.586;9.692;2023-03-03T03:36:01;2.60;87.30
13992;DHT22;7070;53.586;9.692;2023-03-03T03:38:29;2.50;87.30
13992;DHT22;7070;53.586;9.692;2023-03-03T03:40:57;2.60;87.40
13992;DHT22;7070;53.586;9.692;2023-03-03T03:43:25;2.50;87.30
13992;DHT22;7070;53.586;9.692;2023-03-03T03:45:52;2.60;87.50
13992;DHT22;7070;53.586;9.692;2023-03-03T03:48:19;2.60;87.50
13992;DHT22;7070;53.586;9.692;2023-03-03T03:50:46;2.60;88.30
13992;DHT22;7070;53.586;9.692;2023-03-03T03:53:15;2.60;87.50
13992;DHT22;7070;53.586;9.692;2023-03-03T03:55:43;2.60;87.50
13992;DHT22;7070;53.586;9.692;2023-03-03T03:58:12;2.60;87.40
13992;DHT22;7070;53.586;9.692;2023-03-03T04:00:39;2.50;87.30
13992;DHT22;7070;53.586;9.692;2023-03-03T04:03:07;2.50;87.30
13992;DHT22;7070;53.586;9.692;2023-03-03T04:05:34;2.50;87.30
13992;DHT22;7070;53.586;9.692;2023-03-03T04:08:01;2.50;87.50
13992;DHT22;7070;53.586;9.692;2023-03-03T04:10:29;2.50;87.60
13992;DHT22;7070;53.586;9.692;2023-03-03T04:12:56;2.90;88.00
13992;DHT22;7070;53.586;9.692;2023-03-03T04:15:23;2.50;87.60
13992;DHT22;7070;53.586;9.692;2023-03-03T04:17:50;2.50;87.60
13992;DHT22;7070;53.586;9.692;2023-03-03T04:20:17;2.50;88.30
13992;DHT22;7070;53.586;9.692;2023-03-03T04:22:44;2.50;87.70
13992;DHT22;7070;53.586;9.692;2023-03-03T04:25:14;2.60;87.80
13992;DHT22;7070;53.586;9.692;2023-03-03T04:27:43;2.60;87.80
13992;DHT22;7070;53.586;9.692;2023-03-03T04:30:11;2.70;87.90
13992;DHT22;7070;53.586;9.692;2023-03-03T04:32:39;2.60;87.80
13992;DHT22;7070;53.586;9.692;2023-03-03T04:35:07;2.60;87.80
13992;DHT22;7070;53.586;9.692;2023-03-03T04:37:35;2.60;87.80
13992;DHT22;7070;53.586;9.692;2023-03-03T04:40:02;2.70;87.90
13992;DHT22;7070;53.586;9.692;2023-03-03T04:42:29;2.70;87.90
13992;DHT22;7070;53.586;9.692;2023-03-03T04:44:57;1.90;87.20
13992;DHT22;7070;53.586;9.692;2023-03-03T04:47:24;2.80;88.00
13992;DHT22;7070;53.586;9.692;2023-03-03T04:49:51;2.70;87.90
13992;DHT22;7070;53.586;9.692;2023-03-03T04:52:19;2.80;87.90
13992;DHT22;7070;53.586;9.692;2023-03-03T04:54:45;2.70;87.80
13992;DHT22;7070;53.586;9.692;2023-03-03T04:57:12;2.80;87.80
13992;DHT22;7070;53.586;9.692;2023-03-03T04:59:39;2.80;87.90
13992;DHT22;7070;53.586;9.692;2023-03-03T05:02:07;2.80;87.80
13992;DHT22;7070;53.586;9.692;2023-03-03T05:04:34;2.80;87.90
13992;DHT22;7070;53.586;9.692;2023-03-03T05:07:01;2.90;87.80
13992;DHT22;7070;53.586;9.692;2023-03-03T05:09:28;2.80;87.70
13992;DHT22;7070;53.586;9.692;2023-03-03T05:11:55;2.80;87.70
13992;DHT22;7070;53.586;9.692;2023-03-03T05:14:22;2.80;87.70
13992;DHT22;7070;53.586;9.692;2023-03-03T05:16:49;2.80;87.80
13992;DHT22;7070;53.586;9.692;2023-03-03T05:19:17;2.80;87.80
13992;DHT22;7070;53.586;9.692;2023-03-03T05:21:44;2.80;88.60
13992;DHT22;7070;53.586;9.692;2023-03-03T05:24:12;2.90;88.00
13992;DHT22;7070;53.586;9.692;2023-03-03T05:26:39;2.80;87.80
13992;DHT22;7070;53.586;9.692;2023-03-03T05:29:07;2.80;87.80
13992;DHT22;7070;53.586;9.692;2023-03-03T05:31:34;2.80;87.80
13992;DHT22;7070;53.586;9.692;2023-03-03T05:34:01;2.90;87.90
13992;DHT22;7070;53.586;9.692;2023-03-03T05:36:31;2.80;87.80
13992;DHT22;7070;53.586;9.692;2023-03-03T05:38:58;2.90;88.80
13992;DHT22;7070;53.586;9.692;2023-03-03T05:41:25;2.90;87.90
13992;DHT22;7070;53.586;9.692;2023-03-03T05:43:52;2.90;88.00
13992;DHT22;7070;53.586;9.692;2023-03-03T05:46:19;2.90;87.80
13992;DHT22;7070;53.586;9.692;2023-03-03T05:48:46;2.90;87.80
13992;DHT22;7070;53.586;9.692;2023-03-03T05:51:13;2.90;87.90
13992;DHT22;7070;53.586;9.692;2023-03-03T05:53:41;2.90;87.90
13992;DHT22;7070;53.586;9.692;2023-03-03T05:56:08;2.90;87.90
13992;DHT22;7070;53.586;9.692;2023-03-03T05:58:35;2.90;87.80
13992;DHT22;7070;53.586;9.692;2023-03-03T06:01:02;2.90;87.90
13992;DHT22;7070;53.586;9.692;2023-03-03T06:03:30;2.90;87.80
13992;DHT22;7070;53.586;9.692;2023-03-03T06:05:57;3.00;88.00
13992;DHT22;7070;53.586;9.692;2023-03-03T06:08:24;2.90;88.10
13992;DHT22;7070;53.586;9.692;2023-03-03T06:10:53;3.00;88.00
13992;DHT22;7070;53.586;9.692;2023-03-03T06:13:20;2.90;87.80
13992;DHT22;7070;53.586;9.692;2023-03-03T06:15:47;2.90;87.80
13992;DHT22;7070;53.586;9.692;2023-03-03T06:18:13;2.90;87.80
13992;DHT22;7070;53.586;9.692;2023-03-03T06:20:40;2.90;87.80
13992;DHT22;7070;53.586;9.692;2023-03-03T06:23:07;2.90;87.80
13992;DHT22;7070;53.586;9.692;2023-03-03T06:25:34;2.90;87.80
13992;DHT22;7070;53.586;9.692;2023-03-03T06:28:03;2.90;87.90
13992;DHT22;7070;53.586;9.692;2023-03-03T06:30:30;3.10;87.90
13992;DHT22;7070;53.586;9.692;2023-03-03T06:32:56;2.90;87.70
13992;DHT22;7070;53.586;9.692;2023-03-03T06:35:23;2.90;87.80
13992;DHT22;7070;53.586;9.692;2023-03-03T06:37:51;2.90;87.80
13992;DHT22;7070;53.586;9.692;2023-03-03T06:40:18;2.90;87.80
13992;DHT22;7070;53.586;9.692;2023-03-03T06:42:45;2.90;87.90
13992;DHT22;7070;53.586;9.692;2023-03-03T06:45:13;2.90;87.90
13992;DHT22;7070;53.586;9.692;2023-03-03T06:47:40;2.80;87.80
13992;DHT22;7070;53.586;9.692;2023-03-03T06:50:09;2.90;87.90
13992;DHT22;7070;53.586;9.692;2023-03-03T06:52:37;2.90;87.90
13992;DHT22;7070;53.586;9.692;2023-03-03T06:55:11;2.90;87.90
13992;DHT22;7070;53.586;9.692;2023-03-03T06:57:38;2.90;87.90
13992;DHT22;7070;53.586;9.692;2023-03-03T07:00:15;2.90;87.90
13992;DHT22;7070;53.586;9.692;2023-03-03T07:02:42;2.90;87.80
13992;DHT22;7070;53.586;9.692;2023-03-03T07:05:13;2.90;87.90
13992;DHT22;7070;53.586;9.692;2023-03-03T07:07:40;2.90;87.80
13992;DHT22;7070;53.586;9.692;2023-03-03T07:10:18;2.90;87.90
13992;DHT22;7070;53.586;9.692;2023-03-03T07:12:46;3.00;88.00
13992;DHT22;7070;53.586;9.692;2023-03-03T07:15:17;2.90;88.70
13992;DHT22;7070;53.586;9.692;2023-03-03T07:17:47;3.00;88.10
13992;DHT22;7070;53.586;9.692;2023-03-03T07:20:19;2.90;88.10
13992;DHT22;7070;53.586;9.692;2023-03-03T07:22:46;3.10;88.30
13992;DHT22;7070;53.586;9.692;2023-03-03T07:25:20;3.00;88.10
13992;DHT22;7070;53.586;9.692;2023-03-03T07:27:48;3.10;88.30
13992;DHT22;7070;53.586;9.692;2023-03-03T07:30:24;3.10;88.30
13992;DHT22;7070;53.586;9.692;2023-03-03T07:32:53;3.00;88.20
13992;DHT22;7070;53.586;9.692;2023-03-03T07:35:33;3.10;88.30
13992;DHT22;7070;53.586;9.692;2023-03-03T07:38:02;3.20;88.40
13992;DHT22;7070;53.586;9.692;2023-03-03T07:40:35;3.20;88.40
13992;DHT22;7070;53.586;9.692;2023-03-03T07:43:22;3.20;88.50
13992;DHT22;7070;53.586;9.692;2023-03-03T07:45:56;3.30;88.60
13992;DHT22;7070;53.586;9.692;2023-03-03T07:48:30;3.30;88.50
13992;DHT22;7070;53.586;9.692;2023-03-03T07:51:04;3.40;88.60
13992;DHT22;7070;53.586;9.692;2023-03-03T07:53:33;3.50;88.70
13992;DHT22;7070;53.586;9.692;2023-03-03T07:56:11;3.50;88.70
13992;DHT22;7070;53.586;9.692;2023-03-03T07:58:41;3.50;88.70
13992;DHT22;7070;53.586;9.692;2023-03-03T08:01:30;3.50;88.60
13992;DHT22;7070;53.586;9.692;2023-03-03T08:03:57;3.60;88.60
13992;DHT22;7070;53.586;9.692;2023-03-03T08:06:41;3.60;88.60
13992;DHT22;7070;53.586;9.692;2023-03-03T08:09:42;3.80;88.90
13992;DHT22;7070;53.586;9.692;2023-03-03T08:12:37;3.80;88.70
13992;DHT22;7070;53.586;9.692;2023-03-03T08:15:23;3.90;88.80
13992;DHT22;7070;53.586;9.692;2023-03-03T08:17:53;3.90;89.10
13992;DHT22;7070;53.586;9.692;2023-03-03T08:20:52;4.00;89.20
13992;DHT22;7070;53.586;9.692;2023-03-03T08:23:20;4.10;89.30
13992;DHT22;7070;53.586;9.692;2023-03-03T08:25:49;4.20;89.30
13992;DHT22;7070;53.586;9.692;2023-03-03T08:28:16;4.20;89.30
13992;DHT22;7070;53.586;9.692;2023-03-03T08:30:44;4.40;89.40
13992;DHT22;7070;53.586;9.692;2023-03-03T08:33:13;4.40;89.30
13992;DHT22;7070;53.586;9.692;2023-03-03T08:35:41;4.50;89.30
13992;DHT22;7070;53.586;9.692;2023-03-03T08:38:09;4.70;89.40
13992;DHT22;7070;53.586;9.692;2023-03-03T08:40:36;4.80;90.10
13992;DHT22;7070;53.586;9.692;2023-03-03T08:43:03;4.80;89.40
13992;DHT22;7070;53.586;9.692;2023-03-03T08:45:31;4.90;89.30
13992;DHT22;7070;53.586;9.692;2023-03-03T08:47:58;5.10;89.30
13992;DHT22;7070;53.586;9.692;2023-03-03T08:50:27;5.10;89.10
13992;DHT22;7070;53.586;9.692;2023-03-03T08:52:54;5.10;89.20
13992;DHT22;7070;53.586;9.692;2023-03-03T08:55:21;5.20;89.20
13992;DHT22;7070;53.586;9.692;2023-03-03T08:57:48;5.30;89.20
13992;DHT22;7070;53.586;9.692;2023-03-03T09:00:17;5.40;89.20
13992;DHT22;7070;53.586;9.692;2023-03-03T09:02:44;5.40;89.20
13992;DHT22;7070;53.586;9.692;2023-03-03T09:05:12;5.50;89.80
13992;DHT22;7070;53.586;9.692;2023-03-03T09:07:41;5.50;89.10
13992;DHT22;7070;53.586;9.692;2023-03-03T09:10:11;5.60;89.00
13992;DHT22;7070;53.586;9.692;2023-03-03T09:12:40;5.60;88.80
13992;DHT22;7070;53.586;9.692;2023-03-03T09:15:16;5.70;89.60
13992;DHT22;7070;53.586;9.692;2023-03-03T09:17:44;5.70;89.00
13992;DHT22;7070;53.586;9.692;2023-03-03T09:20:23;6.00;89.10
13992;DHT22;7070;53.586;9.692;2023-03-03T09:22:51;5.90;89.20
13992;DHT22;7070;53.586;9.692;2023-03-03T09:25:22;5.90;89.20
13992;DHT22;7070;53.586;9.692;2023-03-03T09:27:52;6.00;89.20
13992;DHT22;7070;53.586;9.692;2023-03-03T09:30:33;5.90;88.90
13992;DHT22;7070;53.586;9.692;2023-03-03T09:33:19;6.00;88.90
13992;DHT22;7070;53.586;9.692;2023-03-03T09:35:49;6.10;88.90
13992;DHT22;7070;53.586;9.692;2023-03-03T09:38:25;6.00;88.90
13992;DHT22;7070;53.586;9.692;2023-03-03T09:41:08;6.10;89.10
13992;DHT22;7070;53.586;9.692;2023-03-03T09:43:44;6.10;89.10
13992;DHT22;7070;53.586;9.692;2023-03-03T09:46:21;6.20;89.50
13992;DHT22;7070;53.586;9.692;2023-03-03T09:48:56;6.20;89.50
13992;DHT22;7070;53.586;9.692;2023-03-03T09:51:43;6.40;89.80
13992;DHT22;7070;53.586;9.692;2023-03-03T09:54:27;6.50;89.70
13992;DHT22;7070;53.586;9.692;2023-03-03T09:57:03;6.60;90.00
13992;DHT22;7070;53.586;9.692;2023-03-03T09:59:48;6.70;90.00
13992;DHT22;7070;53.586;9.692;2023-03-03T10:02:37;6.80;90.10
13992;DHT22;7070;53.586;9.692;2023-03-03T10:05:16;7.00;90.40
13992;DHT22;7070;53.586;9.692;2023-03-03T10:07:53;7.70;90.30
13992;DHT22;7070;53.586;9.692;2023-03-03T10:10:44;7.20;90.00
13992;DHT22;7070;53.586;9.692;2023-03-03T10:13:24;7.30;90.00
13992;DHT22;7070;53.586;9.692;2023-03-03T10:16:01;7.30;90.00
13992;DHT22;7070;53.586;9.692;2023-03-03T10:18:38;7.40;90.00
13992;DHT22;7070;53.586;9.692;2023-03-03T10:21:09;7.50;90.00
13992;DHT22;7070;53.586;9.692;2023-03-03T10:23:52;7.60;90.10
13992;DHT22;7070;53.586;9.692;2023-03-03T10:26:41;7.60;90.00
13992;DHT22;7070;53.586;9.692;2023-03-03T10:29:22;7.70;90.00
13992;DHT22;7070;53.586;9.692;2023-03-03T10:32:01;7.70;90.00
13992;DHT22;7070;53.586;9.692;2023-03-03T10:35:00;7.80;90.00
13992;DHT22;7070;53.586;9.692;2023-03-03T10:37:33;7.90;90.00
13992;DHT22;7070;53.586;9.692;2023-03-03T10:40:13;7.90;90.00
13992;DHT22;7070;53.586;9.692;2023-03-03T10:43:08;8.00;90.10
13992;DHT22;7070;53.586;9.692;2023-03-03T10:48:39;8.10;90.00
13992;DHT22;7070;53.586;9.692;2023-03-03T10:51:19;8.20;90.40
13992;DHT22;7070;53.586;9.692;2023-03-03T10:53:58;8.30;90.00
13992;DHT22;7070;53.586;9.692;2023-03-03T10:56:42;8.40;90.10
13992;DHT22;7070;53.586;9.692;2023-03-03T10:59:28;8.40;90.00
13992;DHT22;7070;53.586;9.692;2023-03-03T11:02:02;8.50;90.10
13992;DHT22;7070;53.586;9.692;2023-03-03T11:04:53;8.60;90.10
13992;DHT22;7070;53.586;9.692;2023-03-03T11:07:28;8.70;90.10
13992;DHT22;7070;53.586;9.692;2023-03-03T11:10:03;8.70;90.10
13992;DHT22;7070;53.586;9.692;2023-03-03T11:12:41;8.80;90.10
13992;DHT22;7070;53.586;9.692;2023-03-03T11:15:33;8.90;90.10
13992;DHT22;7070;53.586;9.692;2023-03-03T11:18:20;8.90;90.00
13992;DHT22;7070;53.586;9.692;2023-03-03T11:20:54;9.00;90.00
13992;DHT22;7070;53.586;9.692;2023-03-03T11:23:44;9.00;90.00
13992;DHT22;7070;53.586;9.692;2023-03-03T11:26:27;9.10;90.40
13992;DHT22;7070;53.586;9.692;2023-03-03T11:29:10;9.20;90.20
13992;DHT22;7070;53.586;9.692;2023-03-03T11:31:45;9.30;90.60
13992;DHT22;7070;53.586;9.692;2023-03-03T11:34:23;9.40;90.30
13992;DHT22;7070;53.586;9.692;2023-03-03T11:36:59;9.50;90.30
13992;DHT22;7070;53.586;9.692;2023-03-03T11:39:27;9.60;90.30
13992;DHT22;7070;53.586;9.692;2023-03-03T11:42:01;9.70;90.60
13992;DHT22;7070;53.586;9.692;2023-03-03T11:44:34;9.90;90.30
13992;DHT22;7070;53.586;9.692;2023-03-03T11:47:08;10.00;89.50
13992;DHT22;7070;53.586;9.692;2023-03-03T11:49:39;10.10;89.30
13992;DHT22;7070;53.586;9.692;2023-03-03T11:52:21;10.30;89.40
13992;DHT22;7070;53.586;9.692;2023-03-03T11:54:55;10.40;89.30
13992;DHT22;7070;53.586;9.692;2023-03-03T11:57:28;10.50;89.20
13992;DHT22;7070;53.586;9.692;2023-03-03T12:00:02;10.60;89.00
13992;DHT22;7070;53.586;9.692;2023-03-03T12:02:56;10.70;88.80
13992;DHT22;7070;53.586;9.692;2023-03-03T12:05:33;10.80;88.80
13992;DHT22;7070;53.586;9.692;2023-03-03T12:08:11;10.90;88.50
13992;DHT22;7070;53.586;9.692;2023-03-03T12:10:46;10.90;88.20
13992;DHT22;7070;53.586;9.692;2023-03-03T12:13:22;10.90;88.00
13992;DHT22;7070;53.586;9.692;2023-03-03T12:16:00;11.00;87.90
13992;DHT22;7070;53.586;9.692;2023-03-03T12:19:01;11.00;87.50
13992;DHT22;7070;53.586;9.692;2023-03-03T12:21:43;11.00;87.30
13992;DHT22;7070;53.586;9.692;2023-03-03T12:24:30;11.00;87.00
13992;DHT22;7070;53.586;9.692;2023-03-03T12:27:09;10.90;86.90
13992;DHT22;7070;53.586;9.692;2023-03-03T12:29:41;10.90;86.60
13992;DHT22;7070;53.586;9.692;2023-03-03T12:32:20;10.90;86.60
13992;DHT22;7070;53.586;9.692;2023-03-03T12:34:53;10.80;86.30
13992;DHT22;7070;53.586;9.692;2023-03-03T12:37:43;10.80;86.20
13992;DHT22;7070;53.586;9.692;2023-03-03T12:40:15;10.80;86.00
13992;DHT22;7070;53.586;9.692;2023-03-03T12:42:53;10.80;86.00
13992;DHT22;7070;53.586;9.692;2023-03-03T12:45:37;10.80;85.60
13992;DHT22;7070;53.586;9.692;2023-03-03T12:48:11;10.70;85.20
13992;DHT22;7070;53.586;9.692;2023-03-03T12:50:50;10.60;84.90
13992;DHT22;7070;53.586;9.692;2023-03-03T12:53:35;10.60;85.00
13992;DHT22;7070;53.586;9.692;2023-03-03T12:56:07;10.50;84.80
13992;DHT22;7070;53.586;9.692;2023-03-03T12:58:42;10.50;84.80
13992;DHT22;7070;53.586;9.692;2023-03-03T13:01:21;10.40;84.70
13992;DHT22;7070;53.586;9.692;2023-03-03T13:03:58;10.50;84.70
13992;DHT22;7070;53.586;9.692;2023-03-03T13:06:34;10.50;84.50
13992;DHT22;7070;53.586;9.692;2023-03-03T13:09:18;10.50;84.20
13992;DHT22;7070;53.586;9.692;2023-03-03T13:12:03;10.50;83.90
13992;DHT22;7070;53.586;9.692;2023-03-03T13:14:39;10.40;83.50
13992;DHT22;7070;53.586;9.692;2023-03-03T13:17:16;10.40;83.30
13992;DHT22;7070;53.586;9.692;2023-03-03T13:19:50;10.30;83.20
13992;DHT22;7070;53.586;9.692;2023-03-03T13:22:31;10.30;83.00
13992;DHT22;7070;53.586;9.692;2023-03-03T13:25:06;10.30;82.90
13992;DHT22;7070;53.586;9.692;2023-03-03T13:27:38;10.20;82.70
13992;DHT22;7070;53.586;9.692;2023-03-03T13:30:14;10.20;82.50
13992;DHT22;7070;53.586;9.692;2023-03-03T13:32:46;10.20;82.70
13992;DHT22;7070;53.586;9.692;2023-03-03T13:35:24;10.20;82.80
13992;DHT22;7070;53.586;9.692;2023-03-03T13:37:57;10.20;83.00
13992;DHT22;7070;53.586;9.692;2023-03-03T13:40:26;10.20;83.20
13992;DHT22;7070;53.586;9.692;2023-03-03T13:42:58;10.30;82.90
13992;DHT22;7070;53.586;9.692;2023-03-03T13:45:33;10.30;82.80
13992;DHT22;7070;53.586;9.692;2023-03-03T13:48:09;10.30;82.50
13992;DHT22;7070;53.586;9.692;2023-03-03T13:50:46;10.40;82.50
13992;DHT22;7070;53.586;9.692;2023-03-03T13:53:36;10.30;82.10
13992;DHT22;7070;53.586;9.692;2023-03-03T13:56:15;10.30;82.20
13992;DHT22;7070;53.586;9.692;2023-03-03T13:58:54;10.40;82.10
13992;DHT22;7070;53.586;9.692;2023-03-03T14:01:30;10.40;82.40
13992;DHT22;7070;53.586;9.692;2023-03-03T14:04:02;10.30;81.80
13992;DHT22;7070;53.586;9.692;2023-03-03T14:06:31;10.40;81.60
13992;DHT22;7070;53.586;9.692;2023-03-03T14:09:19;10.30;81.40
13992;DHT22;7070;53.586;9.692;2023-03-03T14:11:53;10.30;81.40
13992;DHT22;7070;53.586;9.692;2023-03-03T14:14:32;10.30;81.60
13992;DHT22;7070;53.586;9.692;2023-03-03T14:17:10;10.40;81.50
13992;DHT22;7070;53.586;9.692;2023-03-03T14:19:41;10.40;81.40
13992;DHT22;7070;53.586;9.692;2023-03-03T14:22:17;10.40;81.10
13992;DHT22;7070;53.586;9.692;2023-03-03T14:25:00;10.40;81.30
13992;DHT22;7070;53.586;9.692;2023-03-03T14:27:35;10.40;81.00
13992;DHT22;7070;53.586;9.692;2023-03-03T14:30:35;10.40;80.70
13992;DHT22;7070;53.586;9.692;2023-03-03T14:33:19;10.40;80.70
13992;DHT22;7070;53.586;9.692;2023-03-03T14:35:59;10.40;80.70
13992;DHT22;7070;53.586;9.692;2023-03-03T14:38:40;10.40;80.60
13992;DHT22;7070;53.586;9.692;2023-03-03T14:41:22;10.30;80.40
13992;DHT22;7070;53.586;9.692;2023-03-03T14:44:01;10.30;80.00
13992;DHT22;7070;53.586;9.692;2023-03-03T14:47:00;10.20;79.90
13992;DHT22;7070;53.586;9.692;2023-03-03T14:49:29;10.20;80.10
13992;DHT22;7070;53.586;9.692;2023-03-03T14:52:01;10.40;80.20
13992;DHT22;7070;53.586;9.692;2023-03-03T14:54:33;10.10;80.20
13992;DHT22;7070;53.586;9.692;2023-03-03T14:57:08;10.10;80.30
13992;DHT22;7070;53.586;9.692;2023-03-03T14:59:37;10.10;80.20
13992;DHT22;7070;53.586;9.692;2023-03-03T15:05:20;10.00;80.10
13992;DHT22;7070;53.586;9.692;2023-03-03T15:07:50;9.90;81.00
13992;DHT22;7070;53.586;9.692;2023-03-03T15:10:34;9.90;80.80
13992;DHT22;7070;53.586;9.692;2023-03-03T15:13:28;9.80;80.70
13992;DHT22;7070;53.586;9.692;2023-03-03T15:16:09;9.70;80.80
13992;DHT22;7070;53.586;9.692;2023-03-03T15:21:55;9.60;80.70
13992;DHT22;7070;53.586;9.692;2023-03-03T15:24:30;9.50;80.50
13992;DHT22;7070;53.586;9.692;2023-03-03T15:27:01;9.40;80.60
13992;DHT22;7070;53.586;9.692;2023-03-03T15:29:37;9.30;80.80
13992;DHT22;7070;53.586;9.692;2023-03-03T15:32:12;9.30;80.50
13992;DHT22;7070;53.586;9.692;2023-03-03T15:34:44;9.70;80.90
13992;DHT22;7070;53.586;9.692;2023-03-03T15:37:29;9.20;80.50
13992;DHT22;7070;53.586;9.692;2023-03-03T15:40:07;9.10;80.10
13992;DHT22;7070;53.586;9.692;2023-03-03T15:42:43;9.10;80.20
13992;DHT22;7070;53.586;9.692;2023-03-03T15:45:20;8.90;80.10
13992;DHT22;7070;53.586;9.692;2023-03-03T15:48:09;8.80;80.10
13992;DHT22;7070;53.586;9.692;2023-03-03T15:50:44;8.80;80.30
13992;DHT22;7070;53.586;9.692;2023-03-03T15:53:27;8.80;80.30
13992;DHT22;7070;53.586;9.692;2023-03-03T15:56:19;8.70;80.40
13992;DHT22;7070;53.586;9.692;2023-03-03T15:59:31;8.70;80.50
13992;DHT22;7070;53.586;9.692;2023-03-03T16:02:15;8.70;80.60
13992;DHT22;7070;53.586;9.692;2023-03-03T16:04:50;8.60;80.40
13992;DHT22;7070;53.586;9.692;2023-03-03T16:07:27;8.50;80.40
13992;DHT22;7070;53.586;9.692;2023-03-03T16:10:18;8.50;80.40
13992;DHT22;7070;53.586;9.692;2023-03-03T16:12:55;8.70;80.80
13992;DHT22;7070;53.586;9.692;2023-03-03T16:15:36;8.40;80.40
13992;DHT22;7070;53.586;9.692;2023-03-03T16:18:14;8.30;80.30
13992;DHT22;7070;53.586;9.692;2023-03-03T16:20:54;8.30;80.30
13992;DHT22;7070;53.586;9.692;2023-03-03T16:23:30;8.20;80.30
13992;DHT22;7070;53.586;9.692;2023-03-03T16:26:26;8.10;80.00
13992;DHT22;7070;53.586;9.692;2023-03-03T16:29:07;7.70;79.90
13992;DHT22;7070;53.586;9.692;2023-03-03T16:31:40;8.00;80.10
13992;DHT22;7070;53.586;9.692;2023-03-03T16:34:16;8.40;80.80
13992;DHT22;7070;53.586;9.692;2023-03-03T16:36:57;7.90;80.30
13992;DHT22;7070;53.586;9.692;2023-03-03T16:39:37;7.90;80.50
13992;DHT22;7070;53.586;9.692;2023-03-03T16:42:14;7.80;80.60
13992;DHT22;7070;53.586;9.692;2023-03-03T16:44:50;7.80;80.70
13992;DHT22;7070;53.586;9.692;2023-03-03T16:47:38;5.40;79.60
13992;DHT22;7070;53.586;9.692;2023-03-03T16:50:18;7.80;81.00